Latest Coastal Weather Observations for Lord Howe Island

IDN60701

Issued at 11:05 am EDT Saturday 25 October 2014 (issued every 10 minutes, with the page automatically refreshed every 10 minutes)

About coastal observations | Map of coastal stations | Coastal observations for NSW | Marine services | Other Formats
Station Details ID: 200839 Name: LORD HOWE ISLAND AERO Lat: -31.54 Lon: 159.08 Height: 5.0 m
Data from the previous 72 hours. | See also: Recent months at Lord Howe Island
Date/Time
EDT
Temp

°C
Wind Pressure Rain
since 9am
mm
Weather Cloud Vis
km
Sea
Height
m
Swell
Dir
 
Speed
knots
Gust
knots
hPa Trend Height
m
Period
s
Dir
25/11:00am 21.6 NE 11 13 1022.2 - 0.0 - - 10 - - - -
25/10:30am 20.8 NE 11 13 1022.4 - 0.0 - Partly cloudy 10 - - - -
25/10:00am 20.7 NNE 10 13 1022.7 - 0.0 - - 10 - - - -
25/09:30am 20.9 NNE 9 11 1023.0 - 0.0 - - 10 - - - -
25/09:00am 20.1 N 6 8 1023.2 F 0.0 Fine Mostly cloudy 25 - - - -
25/08:30am 19.8 NNW 5 7 1023.2 - 0.0 - Partly cloudy 10 - - - -
25/08:00am 18.9 NNE 5 8 1023.3 - 0.0 - Partly cloudy 10 - - - -
25/07:30am 18.7 NNE 4 8 1023.4 - 0.0 - Partly cloudy 10 - - - -
25/07:00am 18.2 N 2 7 1023.1 - 0.0 - Partly cloudy 10 - - - -
25/06:30am 18.2 N 3 5 1023.1 - 0.0 - Partly cloudy 10 - - - -
25/06:00am 17.8 NNE 5 6 1022.3 R 0.0 Fine Mostly cloudy 25 - - - -
25/05:30am 17.3 NE 5 7 1021.8 - 0.0 - Partly cloudy 10 - - - -
25/05:00am 17.3 NNE 5 7 1021.5 - 0.0 - Partly cloudy 10 - - - -
25/04:30am 17.3 NNE 5 8 1021.3 - 0.0 - Partly cloudy 10 - - - -
25/04:00am 17.6 NNE 7 9 1021.2 - 0.0 - Partly cloudy 10 - - - -
25/03:30am 17.4 NNE 5 7 1021.3 - 0.0 - Partly cloudy 10 - - - -
25/03:00am 16.8 NE 5 9 1021.4 - 0.0 - Mostly clear 10 - - - -
25/02:30am 17.3 NE 8 10 1021.3 - 0.0 - Partly cloudy 10 - - - -
25/02:00am 17.0 ENE 7 9 1021.6 - 0.0 - - 10 - - - -
25/01:30am 16.7 E 5 7 1022.2 - 0.0 - Partly cloudy 10 - - - -
25/01:00am 16.9 ENE 6 9 1022.5 - 0.0 - Partly cloudy 10 - - - -
25/12:30am 14.7 CALM 0 0 1023.1 - 0.0 - Partly cloudy 10 - - - -
25/12:00am 14.5 E 2 4 1023.3 - 0.0 - - 10 - - - -
 
Date/Time
EDT
Temp

°C
Wind Pressure Rain
since 9am
mm
Weather Cloud Vis
km
Sea
Height
m
Swell
Dir
 
Speed
knots
Gust
knots
hPa Trend Height
m
Period
s
Dir
24/11:30pm 14.2 CALM 0 0 1023.5 - 0.0 - - 10 - - - -
24/11:00pm 13.5 CALM 0 0 1023.6 - 0.0 - - 10 - - - -
24/10:30pm 13.2 CALM 0 0 1023.8 - 0.0 - - 10 - - - -
24/10:00pm 14.0 CALM 0 0 1023.9 - 0.0 - - 10 - - - -
24/09:30pm 15.2 SSE 3 4 1023.8 - 0.0 - - 10 - - - -
24/09:00pm 15.6 SE 4 5 1023.8 - 0.0 - - 10 - - - -
24/08:30pm 15.1 SE 1 5 1023.6 - 0.0 - - 10 - - - -
24/08:00pm 15.4 ESE 2 5 1023.3 - 0.0 - - 10 - - - -
24/07:30pm 15.1 NE 2 3 1023.0 - 0.0 - - 10 - - - -
24/07:00pm 17.0 SE 4 5 1023.1 - 0.0 - - 10 - - - -
24/06:30pm 18.0 ESE 5 7 1022.9 - 0.0 - - 10 - - - -
24/06:00pm 18.3 E 5 6 1022.8 - 0.0 - - 10 - - - -
24/05:30pm 19.1 ENE 6 7 1022.7 - 0.0 - - 10 - - - -
24/05:00pm 19.5 ENE 6 7 1022.6 - 0.0 - Partly cloudy 10 - - - -
24/04:30pm 19.8 E 7 10 1022.7 - 0.0 - Partly cloudy 10 - - - -
24/04:00pm 19.8 E 7 10 1022.8 - 0.0 - Partly cloudy 10 - - - -
24/03:30pm 20.1 E 7 10 1022.8 - 0.0 - Partly cloudy 10 - - - -
24/03:00pm 20.0 E 7 9 1023.1 S 0.0 Fine Mostly clear 25 - - - -
24/02:30pm 20.3 E 7 9 1023.3 - 0.0 - - 10 - - - -
24/02:00pm 20.1 ENE 7 9 1023.4 - 0.0 - Partly cloudy 10 - - - -
24/01:30pm 19.7 ENE 7 9 1023.7 - 0.0 - Partly cloudy 10 - - - -
24/01:00pm 20.1 E 7 9 1024.1 - 0.0 - Partly cloudy 10 - - - -
24/12:30pm 19.4 ENE 7 10 1024.2 - 0.0 - Cloudy 10 - - - -
24/12:00pm 19.8 E 9 13 1024.4 - 0.0 - Mostly cloudy 10 - - - -
24/11:30am 20.0 ENE 8 11 1024.4 - 0.0 - Partly cloudy 10 - - - -
24/11:00am 20.1 E 9 11 1024.7 - 0.0 - Partly cloudy 10 - - - -
24/10:30am 19.0 E 9 13 1025.1 - 0.0 - Partly cloudy 10 - - - -
24/10:00am 19.5 E 8 10 1025.3 - 0.0 - Partly cloudy 10 - - - -
24/09:30am 18.4 S 3 5 1025.3 - 0.0 - Cloudy 10 - - - -
24/09:00am 17.1 SE 6 9 1025.3 R 0.2 Drizzle Mostly cloudy 15 - - - -
24/08:30am 18.5 E 8 11 1025.0 - 0.2 - Partly cloudy 10 - - - -
24/08:00am 18.3 E 8 12 1024.7 - 0.2 - Partly cloudy 10 - - - -
24/07:30am 19.0 E 6 9 1024.5 - 0.2 - Partly cloudy 10 - - - -
24/07:00am 17.7 E 6 9 1024.1 - 0.2 - Partly cloudy 10 - - - -
24/06:30am 12.9 CALM 0 0 1024.0 - 0.2 - Partly cloudy 10 - - - -
24/06:00am 11.1 CALM 0 0 1023.8 R 0.2 Fine Mostly clear 25 - - - -
24/05:30am 10.7 CALM 0 0 1023.4 - 0.2 - - 10 - - - -
24/05:00am 10.9 CALM 0 0 1023.2 - 0.2 - - 10 - - - -
24/04:30am 11.3 CALM 0 0 1022.6 - 0.2 - - 10 - - - -
24/04:00am 11.3 CALM 0 0 1022.7 - 0.2 - - 10 - - - -
24/03:30am 11.6 CALM 0 0 1022.5 - 0.2 - - 10 - - - -
24/03:00am 12.0 CALM 0 0 1022.9 - 0.2 - - 10 - - - -
24/02:30am 12.5 CALM 0 0 1023.0 - 0.2 - - 10 - - - -
24/02:00am 14.0 CALM 0 0 1023.2 - 0.2 - Partly cloudy 10 - - - -
24/01:30am 14.8 ESE 3 4 1023.4 - 0.2 - Partly cloudy 10 - - - -
24/01:00am 16.3 SE 4 5 1023.4 - 0.2 - Partly cloudy 10 - - - -
24/12:30am 17.0 SE 4 5 1023.7 - 0.2 - Cloudy 10 - - - -
24/12:00am 17.1 SE 5 6 1023.8 - 0.2 - Mostly cloudy 10 - - - -
 
Date/Time
EDT
Temp

°C
Wind Pressure Rain
since 9am
mm
Weather Cloud Vis
km
Sea
Height
m
Swell
Dir
 
Speed
knots
Gust
knots
hPa Trend Height
m
Period
s
Dir
23/11:30pm 15.9 SE 4 5 1023.6 - 0.2 - Partly cloudy 10 - - - -
23/11:00pm 16.0 SE 3 4 1023.6 - 0.2 - Partly cloudy 10 - - - -
23/10:30pm 16.6 SE 4 6 1023.7 - 0.2 - Partly cloudy 10 - - - -
23/10:00pm 16.2 SE 4 7 1023.6 - 0.2 - Partly cloudy 10 - - - -
23/09:30pm 16.6 SE 4 7 1023.5 - 0.2 - Partly cloudy 10 - - - -
23/09:00pm 16.7 SE 4 6 1023.3 - 0.2 - - 10 - - - -
23/08:30pm 16.2 SE 5 7 1022.9 - 0.2 - - 10 - - - -
23/08:00pm 16.8 SE 5 7 1022.6 - 0.2 - - 10 - - - -
23/07:30pm 16.6 SE 4 6 1022.2 - 0.2 - - 10 - - - -
23/07:00pm 16.6 SE 4 6 1022.0 - 0.2 - - 10 - - - -
23/06:30pm 17.4 ESE 6 8 1021.7 - 0.2 - - 10 - - - -
23/06:00pm 17.7 E 7 10 1021.5 - 0.2 - - 10 - - - -
23/05:30pm 18.3 E 9 12 1021.3 - 0.2 - - 10 - - - -
23/05:00pm 18.7 E 11 15 1021.2 - 0.2 - - 10 - - - -
23/04:30pm 19.0 E 11 15 1020.9 - 0.2 - - 10 - - - -
23/04:00pm 20.0 SSW 4 8 1020.7 - 0.2 - Partly cloudy 10 - - - -
23/03:30pm 20.1 NE 5 12 1020.6 - 0.2 - Partly cloudy 10 - - - -
23/03:00pm 20.3 SW 5 9 1021.0 F 0.2 Fine Partly cloudy 30 - - - -
23/02:30pm 19.9 SW 6 9 1021.3 - 0.2 - Partly cloudy 10 - - - -
23/02:00pm 18.9 S 7 10 1021.6 - 0.2 - Mostly clear 10 - - - -
23/01:30pm 20.1 ESE 6 13 1021.8 - 0.2 - Partly cloudy 10 - - - -
23/01:00pm 19.6 E 5 8 1022.0 - 0.2 - Mostly clear 10 - - - -
23/12:30pm 18.9 SSW 5 8 1022.4 - 0.2 - Partly cloudy 10 - - - -
23/12:00pm 18.7 E 6 13 1022.8 R 0.2 Fine Mostly cloudy 30 - - - -
23/11:30am 18.8 E 9 13 1023.0 - 0.0 - Partly cloudy 10 - - - -
23/11:00am 18.5 E 6 10 1023.3 - 0.0 - Partly cloudy 10 - - - -
23/10:30am 18.6 E 9 11 1023.4 - 0.0 - Partly cloudy 10 - - - -
23/10:00am 18.4 E 6 9 1023.4 - 0.0 - Mostly clear 10 - - - -
23/09:30am 18.6 CALM 0 3 1023.4 - 0.0 - Mostly clear 10 - - - -
23/09:00am 18.4 CALM 0 0 1023.4 R 0.2 Fine Mostly cloudy 30 - - - -
23/08:30am 17.5 SE 1 3 1023.2 - 0.2 - Mostly clear 10 - - - -
23/08:00am 18.0 CALM 0 0 1023.1 - 0.2 - Partly cloudy 10 - - - -
23/07:30am 18.5 E 5 6 1022.9 - 0.2 - Mostly clear 10 - - - -
23/07:00am 17.1 CALM 0 0 1022.6 - 0.2 - Mostly clear 10 - - - -
23/06:30am 16.1 SE 3 4 1022.4 - 0.2 - Mostly clear 10 - - - -
23/06:00am 16.1 SE 4 5 1022.0 F 0.2 Fine Partly cloudy 30 - - - -
23/05:30am 14.7 CALM 0 0 1021.7 - 0.2 - Cloudy 10 - - - -
23/05:00am 15.8 SE 4 4 1021.6 - 0.2 - Cloudy 10 - - - -
23/04:30am 16.5 SE 5 5 1021.6 - 0.2 - Cloudy 10 - - - -
23/04:00am 16.3 SE 6 7 1021.6 - 0.2 - Partly cloudy 10 - - - -
23/03:30am 16.2 SE 6 7 1021.4 - 0.2 - Partly cloudy 10 - - - -
23/03:00am 16.2 SE 5 7 1021.7 - 0.2 - Partly cloudy 10 - - - -
23/02:30am 16.5 SE 7 8 1021.9 - 0.2 - Partly cloudy 10 - - - -
23/02:00am 16.4 SE 7 8 1022.2 - 0.2 - Partly cloudy 10 - - - -
23/01:30am 16.3 SE 7 9 1022.6 - 0.2 - - 10 - - - -
23/01:00am 16.3 SE 6 8 1022.8 - 0.2 - Partly cloudy 10 - - - -
23/12:30am 16.0 SE 7 9 1023.2 - 0.2 - Partly cloudy 10 - - - -
23/12:00am 16.3 SE 6 9 1023.5 - 0.2 - Mostly cloudy 10 - - - -
 
Date/Time
EDT
Temp

°C
Wind Pressure Rain
since 9am
mm
Weather Cloud Vis
km
Sea
Height
m
Swell
Dir
 
Speed
knots
Gust
knots
hPa Trend Height
m
Period
s
Dir
22/11:30pm 16.2 SE 6 9 1023.8 - 0.2 - Partly cloudy 10 - - - -
22/11:00pm 15.7 ESE 2 5 1024.0 - 0.2 - Partly cloudy 10 - - - -
22/10:30pm 16.3 ESE 4 6 1024.3 - 0.0 - Partly cloudy 10 - - - -
22/10:00pm 16.5 ESE 4 6 1024.3 - 0.0 - Partly cloudy 10 - - - -
22/09:30pm 16.5 E 3 8 1024.3 - 0.0 - Partly cloudy 10 - - - -
22/09:00pm 16.3 SE 4 7 1024.3 - 0.0 - Mostly clear 10 - - - -
22/08:30pm 16.6 SE 4 7 1024.2 - 0.0 - Partly cloudy 10 - - - -
22/08:00pm 16.7 ESE 5 7 1024.2 - 0.0 - Partly cloudy 10 - - - -
22/07:30pm 16.3 SE 2 5 1024.1 - 0.0 - Partly cloudy 10 - - - -
22/07:00pm 16.7 ESE 6 9 1023.8 - 0.0 - Partly cloudy 10 - - - -
22/06:30pm 16.8 ESE 7 12 1023.5 - 0.0 - Partly cloudy 10 - - - -
22/06:00pm 17.3 E 7 12 1023.5 - 0.0 - Cloudy 10 - - - -
22/05:30pm 17.4 E 8 15 1023.4 - 0.0 - Partly cloudy 10 - - - -
22/05:00pm 17.2 E 8 13 1023.4 - 0.0 - Partly cloudy 10 - - - -
22/04:30pm 17.4 SSE 5 7 1023.4 - 0.0 - Partly cloudy 10 - - - -
22/04:00pm 17.1 ESE 6 12 1023.5 - 0.0 - Partly cloudy 10 - - - -
22/03:30pm 17.4 ESE 7 12 1023.6 - 0.0 - Partly cloudy 10 - - - -
22/03:00pm 17.4 E 8 14 1023.7 F 0.0 Distant precip. Mostly cloudy 30 - - - -
22/02:30pm 17.2 E 13 21 1023.9 - 0.0 - Partly cloudy 10 - - - -
22/02:00pm 17.3 E 11 16 1024.2 - 0.0 - Mostly cloudy 10 - - - -
22/01:30pm 17.6 ESE 9 14 1024.5 - 0.0 - Mostly cloudy 10 - - - -
22/01:00pm 17.5 ESE 5 11 1024.7 - 0.0 - Mostly cloudy 10 - - - -
22/12:30pm 18.2 SE 6 10 1025.0 - 0.0 Showers Partly cloudy 10 - - - -
22/12:00pm 17.5 E 11 16 1025.2 R 0.0 Recent precip. Mostly cloudy 25 - - - -
22/11:30am 17.7 E 11 19 1025.5 - 0.0 - Partly cloudy 10 - - - -

Other Formats:

Comma delimited format used in spreadsheet applications
http://www.bom.gov.au/fwo/IDN60701/IDN60701.94995.axf

JavaScript Object Notation format (JSON) in row-major order
http://www.bom.gov.au/fwo/IDN60701/IDN60701.94995.json